createdAt,value
2022-08-26T00:00:33.923Z,23.19
2022-08-26T00:01:33.925Z,23.20
2022-08-26T00:02:33.996Z,23.23
2022-08-26T00:03:33.944Z,23.22
2022-08-26T00:04:33.936Z,23.23
2022-08-26T00:07:33.955Z,23.25
2022-08-26T00:10:34.067Z,23.26
2022-08-26T00:11:33.976Z,23.28
2022-08-26T00:12:37.302Z,23.26
2022-08-26T00:13:33.956Z,23.23
2022-08-26T00:14:33.982Z,23.15
2022-08-26T00:15:33.962Z,23.16
2022-08-26T00:16:34.016Z,23.18
2022-08-26T00:17:33.969Z,23.21
2022-08-26T00:18:38.845Z,23.22
2022-08-26T00:19:33.972Z,23.20
2022-08-26T00:20:33.995Z,23.19
2022-08-26T00:21:33.971Z,23.18
2022-08-26T00:22:33.995Z,23.19
2022-08-26T00:23:33.998Z,23.20
2022-08-26T00:24:33.970Z,23.22
2022-08-26T00:25:34.013Z,23.23
2022-08-26T00:26:34.001Z,23.25
2022-08-26T00:27:34.046Z,23.27
2022-08-26T00:30:34.006Z,23.24
2022-08-26T00:31:34.077Z,23.23
2022-08-26T00:33:34.018Z,23.20
2022-08-26T00:34:34.004Z,23.17
2022-08-26T00:35:34.029Z,23.15
2022-08-26T00:43:47.155Z,23.16
2022-08-26T00:44:34.050Z,23.17
2022-08-26T00:45:34.115Z,23.18
2022-08-26T00:46:34.043Z,23.20
2022-08-26T00:47:34.048Z,23.24
2022-08-26T00:48:34.052Z,23.26
2022-08-26T00:49:34.059Z,23.28
2022-08-26T00:52:34.069Z,23.25
2022-08-26T00:53:34.071Z,23.21
2022-08-26T00:54:34.063Z,23.18
2022-08-26T00:55:37.752Z,23.17
2022-08-26T00:57:34.075Z,23.15
2022-08-26T00:59:34.090Z,23.14
2022-08-26T01:00:34.096Z,23.13
2022-08-26T01:01:34.124Z,23.11
2022-08-26T01:02:34.140Z,23.12
2022-08-26T01:03:34.098Z,23.08
2022-08-26T01:04:34.114Z,23.05
2022-08-26T01:05:34.083Z,23.04
2022-08-26T01:06:34.107Z,23.00
2022-08-26T01:07:34.764Z,22.99
2022-08-26T01:08:34.111Z,23.01
2022-08-26T01:09:34.106Z,23.00
2022-08-26T01:10:34.167Z,23.01
2022-08-26T01:11:34.122Z,22.99
2022-08-26T01:12:34.117Z,22.98
2022-08-26T01:15:34.119Z,22.93
2022-08-26T01:16:34.166Z,22.87
2022-08-26T01:17:34.117Z,22.84
2022-08-26T01:18:34.124Z,22.81
2022-08-26T01:19:34.123Z,22.80
2022-08-26T01:20:34.140Z,22.81
2022-08-26T01:22:34.138Z,22.79
2022-08-26T01:23:34.155Z,22.77
2022-08-26T01:26:34.168Z,22.78
2022-08-26T01:28:34.153Z,22.76
2022-08-26T01:29:34.158Z,22.75
2022-08-26T01:30:34.180Z,22.76
2022-08-26T01:31:34.212Z,22.78
2022-08-26T01:32:34.159Z,22.80
2022-08-26T01:33:42.245Z,22.82
2022-08-26T01:34:34.162Z,22.83
2022-08-26T01:35:34.173Z,22.85
2022-08-26T01:36:34.180Z,22.86
2022-08-26T01:37:34.166Z,22.85
2022-08-26T01:41:34.200Z,22.81
2022-08-26T01:42:34.196Z,22.80
2022-08-26T01:44:34.202Z,22.81
2022-08-26T01:45:34.229Z,22.80
2022-08-26T01:46:34.222Z,22.79
2022-08-26T01:47:34.203Z,22.78
2022-08-26T01:49:34.458Z,22.79
2022-08-26T01:50:34.199Z,22.77
2022-08-26T01:51:34.235Z,22.74
2022-08-26T01:52:34.214Z,22.71
2022-08-26T01:53:34.229Z,22.68
2022-08-26T01:54:34.216Z,22.67
2022-08-26T01:55:34.240Z,22.64
2022-08-26T01:56:36.672Z,22.60
2022-08-26T01:57:34.241Z,22.56
2022-08-26T01:59:34.244Z,22.55
2022-08-26T02:00:34.361Z,22.54
2022-08-26T02:01:34.237Z,22.51
2022-08-26T02:04:34.300Z,22.50
2022-08-26T02:05:34.257Z,22.51
2022-08-26T02:07:34.265Z,22.48
2022-08-26T02:08:34.239Z,22.46
2022-08-26T02:09:41.106Z,22.42
2022-08-26T02:10:34.266Z,22.41
2022-08-26T02:11:34.274Z,22.40
2022-08-26T02:12:34.267Z,22.38
2022-08-26T02:13:34.277Z,22.34
2022-08-26T02:14:34.325Z,22.27
2022-08-26T02:15:34.276Z,22.22
2022-08-26T02:16:34.360Z,22.17
2022-08-26T02:17:34.277Z,22.13
2022-08-26T02:18:34.265Z,22.09
2022-08-26T02:19:34.290Z,22.08
2022-08-26T02:20:34.284Z,22.09
2022-08-26T02:21:34.277Z,22.10
2022-08-26T02:22:34.279Z,22.11
2022-08-26T02:24:34.319Z,22.13
2022-08-26T02:25:34.288Z,22.15
2022-08-26T02:26:34.294Z,22.17
2022-08-26T02:27:34.302Z,22.18
2022-08-26T02:28:34.308Z,22.14
2022-08-26T02:29:34.328Z,22.10
2022-08-26T02:30:34.322Z,22.07
2022-08-26T02:31:34.373Z,22.05
2022-08-26T02:32:34.318Z,21.93
2022-08-26T02:33:34.310Z,21.87
2022-08-26T02:34:34.319Z,21.84
2022-08-26T02:35:34.431Z,21.83
2022-08-26T02:36:34.319Z,21.84
2022-08-26T02:37:34.328Z,21.83
2022-08-26T02:38:34.337Z,21.86
2022-08-26T02:39:34.325Z,21.91
2022-08-26T02:40:34.430Z,21.94
2022-08-26T02:41:34.369Z,21.95
2022-08-26T02:42:34.344Z,21.96
2022-08-26T02:43:34.345Z,21.89
2022-08-26T02:44:34.346Z,21.88
2022-08-26T02:45:34.357Z,21.86
2022-08-26T02:46:34.410Z,21.81
2022-08-26T02:47:34.347Z,21.78
2022-08-26T02:50:34.379Z,21.77
2022-08-26T02:51:34.378Z,21.78
2022-08-26T02:52:34.392Z,21.79
2022-08-26T02:53:35.555Z,21.80
2022-08-26T02:54:34.369Z,21.84
2022-08-26T02:55:34.376Z,21.86
2022-08-26T02:56:34.369Z,21.89
2022-08-26T02:58:34.377Z,21.88
2022-08-26T02:59:34.396Z,21.86
2022-08-26T03:01:34.525Z,21.87
2022-08-26T03:04:34.413Z,21.85
2022-08-26T03:05:34.391Z,21.83
2022-08-26T03:06:34.405Z,21.80
2022-08-26T03:07:34.427Z,21.82
2022-08-26T03:08:34.403Z,21.85
2022-08-26T03:09:34.431Z,21.87
2022-08-26T03:11:34.416Z,21.88
2022-08-26T03:12:34.424Z,21.89
2022-08-26T03:13:34.432Z,21.90
2022-08-26T03:14:34.423Z,21.91
2022-08-26T03:15:34.437Z,21.92
2022-08-26T03:16:34.460Z,21.93
2022-08-26T03:17:34.429Z,21.94
2022-08-26T03:18:34.437Z,21.95
2022-08-26T03:19:34.433Z,21.97
2022-08-26T03:20:34.435Z,22.00
2022-08-26T03:21:34.429Z,22.02
2022-08-26T03:22:34.437Z,22.03
2022-08-26T03:23:34.438Z,21.95
2022-08-26T03:24:34.444Z,21.80
2022-08-26T03:25:34.444Z,21.73
2022-08-26T03:26:34.451Z,21.71
2022-08-26T03:27:34.481Z,21.69
2022-08-26T03:28:34.455Z,21.66
2022-08-26T03:29:34.488Z,21.63
2022-08-26T03:30:34.457Z,21.60
2022-08-26T03:31:34.568Z,21.58
2022-08-26T03:33:34.485Z,21.59
2022-08-26T03:36:35.117Z,21.57
2022-08-26T03:37:34.488Z,21.54
2022-08-26T03:38:34.502Z,21.49
2022-08-26T03:39:34.503Z,21.45
2022-08-26T03:40:34.575Z,21.41
2022-08-26T03:41:34.528Z,21.40
2022-08-26T03:44:34.503Z,21.41
2022-08-26T03:45:34.547Z,21.39
2022-08-26T03:46:34.546Z,21.38
2022-08-26T03:47:34.545Z,21.27
2022-08-26T03:48:34.525Z,21.19
2022-08-26T03:49:34.531Z,21.18
2022-08-26T03:52:34.547Z,21.19
2022-08-26T03:53:34.522Z,21.20
2022-08-26T03:54:34.564Z,21.21
2022-08-26T03:55:34.545Z,21.23
2022-08-26T03:56:34.565Z,21.22
2022-08-26T03:57:34.551Z,21.23
2022-08-26T03:58:34.554Z,21.25
2022-08-26T04:00:34.552Z,21.24
2022-08-26T04:01:34.618Z,21.21
2022-08-26T04:02:34.598Z,21.19
2022-08-26T04:03:34.550Z,21.15
2022-08-26T04:04:34.573Z,21.14
2022-08-26T04:05:34.557Z,21.13
2022-08-26T04:06:34.557Z,21.14
2022-08-26T04:07:34.602Z,21.15
2022-08-26T04:08:34.562Z,21.18
2022-08-26T04:09:35.267Z,21.19
2022-08-26T04:10:34.561Z,21.17
2022-08-26T04:11:35.019Z,21.15
2022-08-26T04:12:34.602Z,21.12
2022-08-26T04:13:34.576Z,21.10
2022-08-26T04:14:34.577Z,21.08
2022-08-26T04:15:34.583Z,21.07
2022-08-26T04:16:34.594Z,21.08
2022-08-26T04:17:34.593Z,21.09
2022-08-26T04:18:37.030Z,21.10
2022-08-26T04:19:34.597Z,21.12
2022-08-26T04:21:34.614Z,21.13
2022-08-26T04:22:34.612Z,21.15
2022-08-26T04:23:34.617Z,21.18
2022-08-26T04:24:34.598Z,21.21
2022-08-26T04:25:34.627Z,21.23
2022-08-26T04:26:34.608Z,21.25
2022-08-26T04:27:34.614Z,21.27
2022-08-26T04:30:34.633Z,21.26
2022-08-26T04:31:34.704Z,21.24
2022-08-26T04:32:34.620Z,21.21
2022-08-26T04:33:34.631Z,21.19
2022-08-26T04:37:34.657Z,21.20
2022-08-26T04:39:34.639Z,21.19
2022-08-26T04:40:34.751Z,21.20
2022-08-26T04:41:34.650Z,21.19
2022-08-26T04:42:34.694Z,21.18
2022-08-26T04:43:34.664Z,21.17
2022-08-26T04:44:34.650Z,21.13
2022-08-26T04:45:34.659Z,21.09
2022-08-26T04:46:34.737Z,21.07
2022-08-26T04:48:34.684Z,21.08
2022-08-26T04:50:34.672Z,21.05
2022-08-26T04:51:34.665Z,21.02
2022-08-26T04:52:34.672Z,21.00
2022-08-26T04:54:34.690Z,21.01
2022-08-26T04:55:39.753Z,21.03
2022-08-26T04:56:34.701Z,21.06
2022-08-26T04:57:34.702Z,21.07
2022-08-26T04:58:34.713Z,21.09
2022-08-26T04:59:38.947Z,21.11
2022-08-26T05:00:34.704Z,21.14
2022-08-26T05:01:34.737Z,21.16
2022-08-26T05:02:34.723Z,21.19
2022-08-26T05:03:34.716Z,21.20
2022-08-26T05:04:34.715Z,21.21
2022-08-26T05:05:34.711Z,21.23
2022-08-26T05:06:37.019Z,21.26
2022-08-26T05:07:34.734Z,21.28
2022-08-26T05:08:34.714Z,21.30
2022-08-26T05:09:34.719Z,21.31
2022-08-26T05:10:34.728Z,21.33
2022-08-26T05:16:34.747Z,21.32
2022-08-26T05:17:34.749Z,21.33
2022-08-26T05:18:34.727Z,21.35
2022-08-26T05:19:34.742Z,21.38
2022-08-26T05:20:34.775Z,21.41
2022-08-26T05:21:34.768Z,21.44
2022-08-26T05:22:34.759Z,21.47
2022-08-26T05:23:34.773Z,21.50
2022-08-26T05:24:34.745Z,21.53
2022-08-26T05:25:34.764Z,21.56
2022-08-26T05:26:34.772Z,21.59
2022-08-26T05:27:34.766Z,21.61
2022-08-26T05:28:34.787Z,21.65
2022-08-26T05:29:34.771Z,21.69
2022-08-26T05:30:34.797Z,21.72
2022-08-26T05:31:34.889Z,21.78
2022-08-26T05:32:34.798Z,21.81
2022-08-26T05:33:34.783Z,21.86
2022-08-26T05:34:34.777Z,21.89
2022-08-26T05:35:34.801Z,21.90
2022-08-26T05:36:34.945Z,21.92
2022-08-26T05:37:34.789Z,21.94
2022-08-26T05:38:34.781Z,21.93
2022-08-26T05:39:34.827Z,21.88
2022-08-26T05:40:34.874Z,21.86
2022-08-26T05:41:36.554Z,21.84
2022-08-26T05:42:34.798Z,21.78
2022-08-26T05:43:34.815Z,21.74
2022-08-26T05:44:53.537Z,21.75
2022-08-26T05:45:34.819Z,21.80
2022-08-26T05:46:34.946Z,21.86
2022-08-26T05:47:34.840Z,21.93
2022-08-26T05:48:34.823Z,22.01
2022-08-26T05:49:34.848Z,22.08
2022-08-26T05:50:34.829Z,22.16
2022-08-26T05:51:34.851Z,22.23
2022-08-26T05:52:34.841Z,22.29
2022-08-26T05:53:34.826Z,22.34
2022-08-26T05:54:34.851Z,22.39
2022-08-26T05:55:34.850Z,22.42
2022-08-26T05:56:34.865Z,22.38
2022-08-26T05:57:39.956Z,22.28
2022-08-26T05:58:34.864Z,22.24
2022-08-26T05:59:34.878Z,22.25
2022-08-26T06:00:34.851Z,22.27
2022-08-26T06:01:35.865Z,22.31
2022-08-26T06:02:34.921Z,22.38
2022-08-26T06:03:34.858Z,22.43
2022-08-26T06:04:34.885Z,22.37
2022-08-26T06:05:38.258Z,22.42
2022-08-26T06:06:34.893Z,22.51
2022-08-26T06:07:34.866Z,22.60
2022-08-26T06:08:34.877Z,22.71
2022-08-26T06:09:34.896Z,22.80
2022-08-26T06:10:34.886Z,22.87
2022-08-26T06:11:34.881Z,22.92
2022-08-26T06:12:34.890Z,23.01
2022-08-26T06:13:34.889Z,23.08
2022-08-26T06:14:34.926Z,23.13
2022-08-26T06:15:34.896Z,23.14
2022-08-26T06:16:35.000Z,23.19
2022-08-26T06:17:34.933Z,23.24
2022-08-26T06:18:35.419Z,23.30
2022-08-26T06:19:34.943Z,23.37
2022-08-26T06:20:34.898Z,23.43
2022-08-26T06:21:39.189Z,23.49
2022-08-26T06:22:34.929Z,23.55
2022-08-26T06:23:34.911Z,23.59
2022-08-26T06:24:34.939Z,23.64
2022-08-26T06:25:34.942Z,23.71
2022-08-26T06:26:34.918Z,23.76
2022-08-26T06:27:34.917Z,23.83
2022-08-26T06:28:34.923Z,23.89
2022-08-26T06:29:34.956Z,23.94
2022-08-26T06:30:34.935Z,23.99
2022-08-26T06:31:35.012Z,24.05
2022-08-26T06:32:34.947Z,24.12
2022-08-26T06:33:34.946Z,24.17
2022-08-26T06:34:34.960Z,24.26
2022-08-26T06:35:34.952Z,24.34
2022-08-26T06:36:34.943Z,24.39
2022-08-26T06:37:34.948Z,24.42
2022-08-26T06:38:34.943Z,24.48
2022-08-26T06:39:34.983Z,24.56
2022-08-26T06:40:35.021Z,24.64
2022-08-26T06:41:34.957Z,24.70
2022-08-26T06:42:34.954Z,24.74
2022-08-26T06:43:34.962Z,24.79
2022-08-26T06:44:34.997Z,24.85
2022-08-26T06:45:34.960Z,24.92
2022-08-26T06:46:35.091Z,24.98
2022-08-26T06:47:34.965Z,25.05
2022-08-26T06:48:34.982Z,25.15
2022-08-26T06:49:35.011Z,25.26
2022-08-26T06:50:34.975Z,25.37
2022-08-26T06:51:34.989Z,25.47
2022-08-26T06:52:34.995Z,25.58
2022-08-26T06:53:34.993Z,25.69
2022-08-26T06:54:35.035Z,25.79
2022-08-26T06:55:35.000Z,25.89
2022-08-26T06:56:35.007Z,25.96
2022-08-26T06:57:35.010Z,26.03
2022-08-26T06:58:35.008Z,26.15
2022-08-26T06:59:35.028Z,26.26
2022-08-26T07:00:35.009Z,26.31
2022-08-26T07:01:35.057Z,26.38
2022-08-26T07:02:35.076Z,26.46
2022-08-26T07:03:35.065Z,26.57
2022-08-26T07:04:35.164Z,26.69
2022-08-26T07:05:35.028Z,26.79
2022-08-26T07:06:35.038Z,26.88
2022-08-26T07:07:35.009Z,26.97
2022-08-26T07:08:35.032Z,27.07
2022-08-26T07:09:35.057Z,27.18
2022-08-26T07:10:35.073Z,27.30
2022-08-26T07:11:35.064Z,27.37
2022-08-26T07:12:35.066Z,27.46
2022-08-26T07:13:35.028Z,27.55
2022-08-26T07:14:35.045Z,27.59
2022-08-26T07:15:35.171Z,27.62
2022-08-26T07:16:35.720Z,27.68
2022-08-26T07:17:35.066Z,27.77
2022-08-26T07:18:35.067Z,27.87
2022-08-26T07:19:35.064Z,27.97
2022-08-26T07:20:35.077Z,28.09
2022-08-26T07:21:35.055Z,28.15
2022-08-26T07:22:35.076Z,28.14
2022-08-26T07:23:35.084Z,28.17
2022-08-26T07:24:35.360Z,28.23
2022-08-26T07:25:35.069Z,28.32
2022-08-26T07:26:35.110Z,28.35
2022-08-26T07:27:35.101Z,28.25
2022-08-26T07:28:35.079Z,28.27
2022-08-26T07:29:35.099Z,28.37
2022-08-26T07:30:35.247Z,28.51
2022-08-26T07:31:39.223Z,28.66
2022-08-26T07:32:35.097Z,28.87
2022-08-26T07:33:35.096Z,29.06
2022-08-26T07:34:35.106Z,29.23
2022-08-26T07:35:35.094Z,29.37
2022-08-26T07:36:35.125Z,29.53
2022-08-26T07:37:35.592Z,29.66
2022-08-26T07:38:35.111Z,29.79
2022-08-26T07:39:35.123Z,29.93
2022-08-26T07:40:35.161Z,30.05
2022-08-26T07:41:35.137Z,30.15
2022-08-26T07:42:35.129Z,30.25
2022-08-26T07:43:35.140Z,30.38
2022-08-26T07:44:35.133Z,30.49
2022-08-26T07:45:35.120Z,30.54
2022-08-26T07:46:35.166Z,30.63
2022-08-26T07:47:35.140Z,30.76
2022-08-26T07:48:35.151Z,30.84
2022-08-26T07:49:35.214Z,30.99
2022-08-26T07:50:49.084Z,31.13
2022-08-26T07:51:35.161Z,31.28
2022-08-26T07:52:35.158Z,31.38
2022-08-26T07:53:35.153Z,31.44
2022-08-26T07:54:35.167Z,31.42
2022-08-26T07:55:35.178Z,31.35
2022-08-26T07:56:35.181Z,31.30
2022-08-26T07:57:35.171Z,31.28
2022-08-26T07:58:35.170Z,31.25
2022-08-26T07:59:35.165Z,31.27
2022-08-26T08:00:35.171Z,31.33
2022-08-26T08:01:35.299Z,31.39
2022-08-26T08:02:35.182Z,31.47
2022-08-26T08:03:35.175Z,31.53
2022-08-26T08:04:35.288Z,31.57
2022-08-26T08:05:35.220Z,31.61
2022-08-26T08:06:35.204Z,31.57
2022-08-26T08:07:44.435Z,31.51
2022-08-26T08:08:35.195Z,31.48
2022-08-26T08:09:35.184Z,31.44
2022-08-26T08:10:35.177Z,31.34
2022-08-26T08:11:35.233Z,31.25
2022-08-26T08:12:35.189Z,31.16
2022-08-26T08:13:35.215Z,31.10
2022-08-26T08:14:35.226Z,31.05
2022-08-26T08:15:35.220Z,31.02
2022-08-26T08:16:37.243Z,30.99
2022-08-26T08:18:35.218Z,30.98
2022-08-26T08:20:35.228Z,31.02
2022-08-26T08:21:35.253Z,31.10
2022-08-26T08:22:35.223Z,31.19
2022-08-26T08:23:35.222Z,31.26
2022-08-26T08:24:35.237Z,31.34
2022-08-26T08:25:35.235Z,31.39
2022-08-26T08:26:35.274Z,31.46
2022-08-26T08:27:35.230Z,31.53
2022-08-26T08:28:35.240Z,31.62
2022-08-26T08:29:35.254Z,31.70
2022-08-26T08:30:35.303Z,31.75
2022-08-26T08:31:56.875Z,31.79
2022-08-26T08:32:35.245Z,31.83
2022-08-26T08:33:35.268Z,31.87
2022-08-26T08:34:35.306Z,31.91
2022-08-26T08:35:35.253Z,31.96
2022-08-26T08:36:36.232Z,31.95
2022-08-26T08:37:35.266Z,31.90
2022-08-26T08:38:35.283Z,31.87
2022-08-26T08:39:35.294Z,31.85
2022-08-26T08:40:35.355Z,31.84
2022-08-26T08:41:35.311Z,31.82
2022-08-26T08:42:35.284Z,31.79
2022-08-26T08:43:37.597Z,31.78
2022-08-26T08:44:35.273Z,31.77
2022-08-26T08:45:36.739Z,31.74
2022-08-26T08:46:35.402Z,31.65
2022-08-26T08:47:35.306Z,31.56
2022-08-26T08:48:35.301Z,31.46
2022-08-26T08:49:35.308Z,31.36
2022-08-26T08:50:35.323Z,31.31
2022-08-26T08:51:35.316Z,31.28
2022-08-26T08:52:35.303Z,31.22
2022-08-26T08:53:35.333Z,31.16
2022-08-26T08:54:35.340Z,31.12
2022-08-26T08:56:35.343Z,31.11
2022-08-26T08:57:35.339Z,31.10
2022-08-26T08:58:35.330Z,31.01
2022-08-26T08:59:35.325Z,30.99
2022-08-26T09:00:39.125Z,31.04
2022-08-26T09:01:35.480Z,31.10
2022-08-26T09:02:35.422Z,31.15
2022-08-26T09:03:35.332Z,31.24
2022-08-26T09:04:35.350Z,31.32
2022-08-26T09:05:35.344Z,31.35
2022-08-26T09:06:35.384Z,31.32
2022-08-26T09:07:36.651Z,31.27
2022-08-26T09:09:35.356Z,31.29
2022-08-26T09:10:35.356Z,31.31
2022-08-26T09:11:35.376Z,31.37
2022-08-26T09:12:35.351Z,31.44
2022-08-26T09:13:35.371Z,31.52
2022-08-26T09:14:35.380Z,31.61
2022-08-26T09:15:35.358Z,31.70
2022-08-26T09:16:35.467Z,31.78
2022-08-26T09:17:35.382Z,31.85
2022-08-26T09:18:35.364Z,31.92
2022-08-26T09:19:35.384Z,32.03
2022-08-26T09:20:35.397Z,32.15
2022-08-26T09:21:35.402Z,32.25
2022-08-26T09:22:35.380Z,32.36
2022-08-26T09:23:35.798Z,32.46
2022-08-26T09:24:39.566Z,32.53
2022-08-26T09:25:35.402Z,32.57
2022-08-26T09:26:35.450Z,32.62
2022-08-26T09:27:35.393Z,32.66
2022-08-26T09:28:35.405Z,32.74
2022-08-26T09:29:35.409Z,32.81
2022-08-26T09:30:35.487Z,32.88
2022-08-26T09:31:35.560Z,32.93
2022-08-26T09:32:35.419Z,32.97
2022-08-26T09:33:35.424Z,33.04
2022-08-26T09:34:35.449Z,33.10
2022-08-26T09:35:35.414Z,33.16
2022-08-26T09:36:39.455Z,33.22
2022-08-26T09:37:35.538Z,33.30
2022-08-26T09:38:35.430Z,33.37
2022-08-26T09:39:37.494Z,33.40
2022-08-26T09:40:35.532Z,33.42
2022-08-26T09:41:35.466Z,33.45
2022-08-26T09:42:35.463Z,33.50
2022-08-26T09:43:35.441Z,33.52
2022-08-26T09:44:35.435Z,33.54
2022-08-26T09:45:35.472Z,33.55
2022-08-26T09:46:35.587Z,33.58
2022-08-26T09:48:36.406Z,33.57
2022-08-26T09:49:36.423Z,33.56
2022-08-26T09:50:35.478Z,33.57
2022-08-26T09:51:35.491Z,33.59
2022-08-26T09:52:35.463Z,33.61
2022-08-26T09:53:35.481Z,33.62
2022-08-26T09:54:35.463Z,33.65
2022-08-26T09:55:35.479Z,33.69
2022-08-26T09:56:35.488Z,33.71
2022-08-26T09:57:35.468Z,33.75
2022-08-26T09:58:35.489Z,33.82
2022-08-26T09:59:35.487Z,33.86
2022-08-26T10:00:35.498Z,33.90
2022-08-26T10:01:36.079Z,33.96
2022-08-26T10:02:35.489Z,34.02
2022-08-26T10:03:35.504Z,34.06
2022-08-26T10:04:35.561Z,34.11
2022-08-26T10:05:35.502Z,34.17
2022-08-26T10:06:35.515Z,34.24
2022-08-26T10:07:35.513Z,34.29
2022-08-26T10:08:35.501Z,34.35
2022-08-26T10:09:35.504Z,34.42
2022-08-26T10:10:35.561Z,34.45
2022-08-26T10:11:35.552Z,34.48
2022-08-26T10:12:35.509Z,34.51
2022-08-26T10:13:35.529Z,34.53
2022-08-26T10:14:35.579Z,34.55
2022-08-26T10:16:35.615Z,34.54
2022-08-26T10:17:35.537Z,34.52
2022-08-26T10:18:35.550Z,34.48
2022-08-26T10:19:55.783Z,34.46
2022-08-26T10:20:35.556Z,34.24
2022-08-26T10:21:35.569Z,34.09
2022-08-26T10:22:35.550Z,34.04
2022-08-26T10:23:35.549Z,34.01
2022-08-26T10:24:35.556Z,33.98
2022-08-26T10:25:35.551Z,33.95
2022-08-26T10:26:35.565Z,33.92
2022-08-26T10:27:35.542Z,33.91
2022-08-26T10:28:35.554Z,33.93
2022-08-26T10:29:35.589Z,33.92
2022-08-26T10:32:35.615Z,33.94
2022-08-26T10:34:35.599Z,33.95
2022-08-26T10:35:35.598Z,33.98
2022-08-26T10:36:46.973Z,34.00
2022-08-26T10:38:35.609Z,33.99
2022-08-26T10:39:35.606Z,33.98
2022-08-26T10:40:35.870Z,33.97
2022-08-26T10:41:35.608Z,33.98
2022-08-26T10:43:35.630Z,33.99
2022-08-26T10:44:35.619Z,34.01
2022-08-26T10:45:35.669Z,34.00
2022-08-26T10:46:35.622Z,33.99
2022-08-26T10:47:35.620Z,33.98
2022-08-26T10:48:35.993Z,33.99
2022-08-26T10:49:35.630Z,34.00
2022-08-26T10:50:35.640Z,34.01
2022-08-26T10:53:35.659Z,34.02
2022-08-26T10:54:35.644Z,34.00
2022-08-26T10:55:35.652Z,34.01
2022-08-26T10:57:35.653Z,34.00
2022-08-26T10:58:35.642Z,34.02
2022-08-26T10:59:35.664Z,34.03
2022-08-26T11:00:35.652Z,34.01
2022-08-26T11:01:35.697Z,33.92
2022-08-26T11:02:35.672Z,33.83
2022-08-26T11:04:35.712Z,33.86
2022-08-26T11:05:35.654Z,33.88
2022-08-26T11:06:37.064Z,33.89
2022-08-26T11:07:35.677Z,33.91
2022-08-26T11:09:35.692Z,33.93
2022-08-26T11:10:35.665Z,33.89
2022-08-26T11:11:35.688Z,33.72
2022-08-26T11:12:35.673Z,33.35
2022-08-26T11:13:38.748Z,33.14
2022-08-26T11:14:46.022Z,32.82
2022-08-26T11:15:35.695Z,32.71
2022-08-26T11:16:35.746Z,32.77
2022-08-26T11:17:35.728Z,32.86
2022-08-26T11:18:35.720Z,32.97
2022-08-26T11:19:58.969Z,33.07
2022-08-26T11:20:35.718Z,33.15
2022-08-26T11:21:35.704Z,33.23
2022-08-26T11:22:36.280Z,33.26
2022-08-26T11:23:35.720Z,33.11
2022-08-26T11:24:35.719Z,33.06
2022-08-26T11:25:35.716Z,33.09
2022-08-26T11:27:35.721Z,33.07
2022-08-26T11:28:35.712Z,33.01
2022-08-26T11:29:35.734Z,32.99
2022-08-26T11:30:35.744Z,32.90
2022-08-26T11:31:35.776Z,32.68
2022-08-26T11:32:35.796Z,32.69
2022-08-26T11:33:35.755Z,32.74
2022-08-26T11:34:35.751Z,32.80
2022-08-26T11:35:37.510Z,32.83
2022-08-26T11:36:35.754Z,32.80
2022-08-26T11:37:35.764Z,32.77
2022-08-26T11:38:35.767Z,32.82
2022-08-26T11:39:36.838Z,32.89
2022-08-26T11:40:35.798Z,32.96
2022-08-26T11:41:35.794Z,33.03
2022-08-26T11:42:35.769Z,32.96
2022-08-26T11:44:35.787Z,33.00
2022-08-26T11:45:35.814Z,33.03
2022-08-26T11:46:35.783Z,33.06
2022-08-26T11:47:35.773Z,33.11
2022-08-26T11:48:35.791Z,33.16
2022-08-26T11:49:35.775Z,33.20
2022-08-26T11:50:35.833Z,33.22
2022-08-26T11:51:40.492Z,33.15
2022-08-26T11:52:35.782Z,33.12
2022-08-26T11:53:35.808Z,33.19
2022-08-26T11:54:35.941Z,33.25
2022-08-26T11:55:35.812Z,33.31
2022-08-26T11:56:35.797Z,33.38
2022-08-26T11:57:35.790Z,33.44
2022-08-26T11:58:35.817Z,33.50
2022-08-26T12:00:35.825Z,33.52
2022-08-26T12:01:35.811Z,33.46
2022-08-26T12:02:35.822Z,33.48
2022-08-26T12:03:35.965Z,33.51
2022-08-26T12:04:35.887Z,33.43
2022-08-26T12:05:35.852Z,33.19
2022-08-26T12:06:37.689Z,33.11
2022-08-26T12:07:35.845Z,33.10
2022-08-26T12:08:35.819Z,33.14
2022-08-26T12:09:35.822Z,33.16
2022-08-26T12:10:35.863Z,33.14
2022-08-26T12:11:35.868Z,33.10
2022-08-26T12:12:36.177Z,33.09
2022-08-26T12:13:35.857Z,33.06
2022-08-26T12:14:35.845Z,33.03
2022-08-26T12:15:35.864Z,33.02
2022-08-26T12:16:35.881Z,32.98
2022-08-26T12:17:35.871Z,32.89
2022-08-26T12:18:35.856Z,32.79
2022-08-26T12:19:35.880Z,32.74
2022-08-26T12:21:35.859Z,32.79
2022-08-26T12:22:35.881Z,32.80
2022-08-26T12:24:35.898Z,32.84
2022-08-26T12:25:36.154Z,32.89
2022-08-26T12:26:35.903Z,32.81
2022-08-26T12:27:35.882Z,32.78
2022-08-26T12:29:35.888Z,32.75
2022-08-26T12:30:35.888Z,32.64
2022-08-26T12:31:35.958Z,32.67
2022-08-26T12:32:35.901Z,32.74
2022-08-26T12:34:35.900Z,32.83
2022-08-26T12:35:35.905Z,32.92
2022-08-26T12:36:35.929Z,32.94
2022-08-26T12:37:35.895Z,32.95
2022-08-26T12:38:35.920Z,33.03
2022-08-26T12:39:35.934Z,33.01
2022-08-26T12:40:36.032Z,32.99
2022-08-26T12:41:35.912Z,33.06
2022-08-26T12:42:35.916Z,33.15
2022-08-26T12:43:35.915Z,33.23
2022-08-26T12:44:35.958Z,33.29
2022-08-26T12:45:36.000Z,33.32
2022-08-26T12:46:35.934Z,33.33
2022-08-26T12:47:42.250Z,33.28
2022-08-26T12:48:35.938Z,33.20
2022-08-26T12:49:35.949Z,33.18
2022-08-26T12:50:35.950Z,33.17
2022-08-26T12:51:35.942Z,33.20
2022-08-26T12:52:35.951Z,33.23
2022-08-26T12:53:35.965Z,33.26
2022-08-26T12:54:35.993Z,33.22
2022-08-26T12:55:35.977Z,33.21
2022-08-26T12:56:35.970Z,33.22
2022-08-26T12:58:35.975Z,33.20
2022-08-26T12:59:35.994Z,33.22
2022-08-26T13:00:36.032Z,33.24
2022-08-26T13:01:36.102Z,33.20
2022-08-26T13:02:35.995Z,33.00
2022-08-26T13:03:35.972Z,32.89
2022-08-26T13:04:36.008Z,32.83
2022-08-26T13:05:35.992Z,32.86
2022-08-26T13:06:36.002Z,32.89
2022-08-26T13:07:35.981Z,32.96
2022-08-26T13:08:36.006Z,32.98
2022-08-26T13:09:36.034Z,32.95
2022-08-26T13:10:35.998Z,32.96
2022-08-26T13:11:35.998Z,32.98
2022-08-26T13:12:36.009Z,33.01
2022-08-26T13:13:36.003Z,33.04
2022-08-26T13:14:36.011Z,33.07
2022-08-26T13:15:35.999Z,33.11
2022-08-26T13:16:36.120Z,33.13
2022-08-26T13:17:36.069Z,33.20
2022-08-26T13:18:36.039Z,33.25
2022-08-26T13:19:36.015Z,33.22
2022-08-26T13:20:36.020Z,33.25
2022-08-26T13:21:37.435Z,33.27
2022-08-26T13:22:36.080Z,33.17
2022-08-26T13:23:40.617Z,32.87
2022-08-26T13:24:36.050Z,32.64
2022-08-26T13:25:36.040Z,32.54
2022-08-26T13:26:36.066Z,32.62
2022-08-26T13:27:36.060Z,32.67
2022-08-26T13:28:36.046Z,32.79
2022-08-26T13:29:36.053Z,32.88
2022-08-26T13:30:36.084Z,32.94
2022-08-26T13:31:36.113Z,32.93
2022-08-26T13:32:36.064Z,32.99
2022-08-26T13:33:36.055Z,33.04
2022-08-26T13:34:36.075Z,33.14
2022-08-26T13:35:36.074Z,33.13
2022-08-26T13:36:36.055Z,33.12
2022-08-26T13:37:36.065Z,33.13
2022-08-26T13:38:36.069Z,33.11
2022-08-26T13:39:36.102Z,33.04
2022-08-26T13:40:36.141Z,32.96
2022-08-26T13:41:36.079Z,32.95
2022-08-26T13:42:36.081Z,32.99
2022-08-26T13:44:36.109Z,33.02
2022-08-26T13:45:36.085Z,33.05
2022-08-26T13:46:36.241Z,33.07
2022-08-26T13:47:36.104Z,33.11
2022-08-26T13:48:36.082Z,33.10
2022-08-26T13:49:36.117Z,32.90
2022-08-26T13:50:36.117Z,32.74
2022-08-26T13:51:36.143Z,32.73
2022-08-26T13:52:36.132Z,32.71
2022-08-26T13:53:36.130Z,32.68
2022-08-26T13:54:36.156Z,32.69
2022-08-26T13:55:36.130Z,32.64
2022-08-26T13:56:36.151Z,32.56
2022-08-26T13:57:36.141Z,32.54
2022-08-26T13:58:36.163Z,32.56
2022-08-26T13:59:36.150Z,32.61
2022-08-26T14:00:36.203Z,32.68
2022-08-26T14:01:36.140Z,32.74
2022-08-26T14:02:36.171Z,32.80
2022-08-26T14:03:36.230Z,32.85
2022-08-26T14:04:36.139Z,32.88
2022-08-26T14:06:36.151Z,32.82
2022-08-26T14:07:36.144Z,32.70
2022-08-26T14:08:36.171Z,32.67
2022-08-26T14:09:38.432Z,32.68
2022-08-26T14:10:36.199Z,32.73
2022-08-26T14:11:50.933Z,32.76
2022-08-26T14:12:36.181Z,32.72
2022-08-26T14:13:36.161Z,32.71
2022-08-26T14:14:36.166Z,32.72
2022-08-26T14:15:36.172Z,32.64
2022-08-26T14:16:36.268Z,32.62
2022-08-26T14:17:36.193Z,32.61
2022-08-26T14:18:41.077Z,32.62
2022-08-26T14:19:36.216Z,32.51
2022-08-26T14:20:36.182Z,32.46
2022-08-26T14:21:36.215Z,32.42
2022-08-26T14:22:40.520Z,32.39